createdAt,value
2023-05-07T00:00:16.749Z,100887.56
2023-05-07T00:02:44.027Z,100882.16
2023-05-07T00:05:11.724Z,100881.97
2023-05-07T00:07:39.157Z,100882.06
2023-05-07T00:10:07.798Z,100888.56
2023-05-07T00:12:35.094Z,100893.19
2023-05-07T00:15:04.406Z,100893.34
2023-05-07T00:17:32.036Z,100885.31
2023-05-07T00:19:59.125Z,100889.81
2023-05-07T00:22:26.241Z,100890.84
2023-05-07T00:24:53.359Z,100882.69
2023-05-07T00:27:20.528Z,100886.41
2023-05-07T00:29:47.699Z,100885.19
2023-05-07T00:32:15.030Z,100885.00
2023-05-07T00:34:42.388Z,100882.41
2023-05-07T00:37:10.038Z,100889.53
2023-05-07T00:39:37.152Z,100891.03
2023-05-07T00:42:04.881Z,100893.28
2023-05-07T00:44:32.024Z,100894.97
2023-05-07T00:46:59.326Z,100893.50
2023-05-07T00:49:39.986Z,100901.56
2023-05-07T00:52:09.048Z,100903.66
2023-05-07T00:54:36.460Z,100908.63
2023-05-07T00:57:05.100Z,100907.13
2023-05-07T00:59:34.120Z,100907.22
2023-05-07T01:02:01.335Z,100911.75
2023-05-07T01:04:28.576Z,100913.53
2023-05-07T01:06:59.316Z,100918.47
2023-05-07T01:09:28.206Z,100920.16
2023-05-07T01:11:57.173Z,100919.44
2023-05-07T01:14:24.952Z,100920.88
2023-05-07T01:16:54.831Z,100925.06
2023-05-07T01:19:24.405Z,100926.13
2023-05-07T01:21:52.732Z,100921.63
2023-05-07T01:24:22.455Z,100915.22
2023-05-07T01:26:49.486Z,100915.06
2023-05-07T01:29:17.846Z,100915.31
2023-05-07T01:31:47.320Z,100915.56
2023-05-07T01:34:18.627Z,100918.94
2023-05-07T01:36:46.902Z,100919.19
2023-05-07T01:39:14.938Z,100922.72
2023-05-07T01:41:42.353Z,100910.03
2023-05-07T01:44:11.308Z,100912.59
2023-05-07T01:46:38.784Z,100920.00
2023-05-07T01:49:06.043Z,100923.38
2023-05-07T01:51:33.956Z,100922.34
2023-05-07T01:54:01.458Z,100906.22
2023-05-07T01:56:28.705Z,100916.25
2023-05-07T01:58:56.227Z,100910.47
2023-05-07T02:01:23.545Z,100905.97
2023-05-07T02:03:51.056Z,100902.97
2023-05-07T02:06:23.762Z,100902.75
2023-05-07T02:08:53.748Z,100900.31
2023-05-07T02:11:21.403Z,100896.19
2023-05-07T02:13:48.573Z,100896.53
2023-05-07T02:16:15.723Z,100893.78
2023-05-07T02:18:42.793Z,100900.06
2023-05-07T02:21:09.902Z,100897.31
2023-05-07T02:23:37.039Z,100896.47
2023-05-07T02:26:05.404Z,100895.63
2023-05-07T02:28:32.690Z,100900.22
2023-05-07T02:31:05.499Z,100897.34
2023-05-07T02:33:33.485Z,100899.47
2023-05-07T02:36:11.492Z,100895.41
2023-05-07T02:38:47.976Z,100898.13
2023-05-07T02:41:15.114Z,100896.13
2023-05-07T02:43:42.172Z,100895.09
2023-05-07T02:46:11.399Z,100895.38
2023-05-07T02:48:42.696Z,100903.50
2023-05-07T02:51:09.795Z,100908.56
2023-05-07T02:53:39.020Z,100901.25
2023-05-07T02:56:07.445Z,100910.75
2023-05-07T02:58:34.605Z,100910.75
2023-05-07T03:01:02.761Z,100910.38
2023-05-07T03:03:35.692Z,100913.94
2023-05-07T03:06:02.910Z,100911.09
2023-05-07T03:08:30.152Z,100913.44
2023-05-07T03:10:57.243Z,100906.22
2023-05-07T03:13:24.653Z,100910.91
2023-05-07T03:15:52.630Z,100911.44
2023-05-07T03:18:19.800Z,100916.53
2023-05-07T03:20:47.672Z,100906.47
2023-05-07T03:23:14.897Z,100919.09
2023-05-07T03:25:42.076Z,100916.19
2023-05-07T03:28:10.738Z,100926.31
2023-05-07T03:30:43.708Z,100920.63
2023-05-07T03:33:10.951Z,100917.75
2023-05-07T03:35:38.610Z,100928.66
2023-05-07T03:38:06.349Z,100931.63
2023-05-07T03:40:36.257Z,100929.38
2023-05-07T03:43:04.768Z,100928.59
2023-05-07T03:45:33.647Z,100928.34
2023-05-07T03:48:20.923Z,100940.00
2023-05-07T03:50:50.061Z,100943.97
2023-05-07T03:53:18.914Z,100946.09
2023-05-07T03:55:46.068Z,100953.88
2023-05-07T03:58:13.126Z,100957.16
2023-05-07T04:00:41.654Z,100958.94
2023-05-07T04:03:29.256Z,100952.53
2023-05-07T04:05:59.367Z,100958.91
2023-05-07T04:08:26.964Z,100955.03
2023-05-07T04:10:59.321Z,100954.97
2023-05-07T04:13:31.427Z,100956.38
2023-05-07T04:16:00.273Z,100961.03
2023-05-07T04:18:27.605Z,100964.00
2023-05-07T04:20:54.752Z,100958.16
2023-05-07T04:23:22.351Z,100956.34
2023-05-07T04:25:49.854Z,100966.66
2023-05-07T04:28:33.203Z,100961.41
2023-05-07T04:31:00.676Z,100966.47
2023-05-07T04:33:28.278Z,100963.31
2023-05-07T04:35:58.435Z,100963.47
2023-05-07T04:38:26.662Z,100961.66
2023-05-07T04:40:55.884Z,100964.44
2023-05-07T04:43:26.025Z,100961.59
2023-05-07T04:45:53.553Z,100970.22
2023-05-07T04:48:23.157Z,100966.72
2023-05-07T04:50:52.048Z,100968.09
2023-05-07T04:53:20.366Z,100977.81
2023-05-07T04:55:49.333Z,100969.53
2023-05-07T04:58:17.302Z,100968.53
2023-05-07T05:00:47.773Z,100971.25
2023-05-07T05:03:14.915Z,100975.13
2023-05-07T05:05:42.593Z,100972.19
2023-05-07T05:08:10.044Z,100975.94
2023-05-07T05:10:39.929Z,100984.59
2023-05-07T05:13:07.726Z,100980.66
2023-05-07T05:15:35.477Z,100982.03
2023-05-07T05:18:03.393Z,100986.31
2023-05-07T05:20:31.522Z,100987.25
2023-05-07T05:22:59.060Z,100991.84
2023-05-07T05:25:26.272Z,100986.84
2023-05-07T05:27:53.468Z,100989.31
2023-05-07T05:30:21.393Z,100984.13
2023-05-07T05:32:50.539Z,100985.81
2023-05-07T05:35:17.855Z,100988.66
2023-05-07T05:37:45.493Z,100990.63
2023-05-07T05:40:13.513Z,100992.88
2023-05-07T05:42:40.830Z,100988.28
2023-05-07T05:45:09.707Z,100986.03
2023-05-07T05:47:36.909Z,100996.56
2023-05-07T05:50:04.334Z,101000.19
2023-05-07T05:52:31.519Z,100997.56
2023-05-07T05:54:58.737Z,101003.13
2023-05-07T05:57:28.605Z,101005.25
2023-05-07T05:59:56.954Z,101007.09
2023-05-07T06:02:25.193Z,101010.56
2023-05-07T06:04:52.924Z,101016.78
2023-05-07T06:07:22.566Z,101000.53
2023-05-07T06:09:50.149Z,101002.13
2023-05-07T06:12:17.255Z,101006.31
2023-05-07T06:14:45.031Z,101006.97
2023-05-07T06:17:12.856Z,101002.22
2023-05-07T06:19:40.289Z,101008.97
2023-05-07T06:22:08.295Z,101011.81
2023-05-07T06:24:36.297Z,101016.81
2023-05-07T06:27:05.358Z,101009.81
2023-05-07T06:29:34.624Z,101009.81
2023-05-07T06:32:09.665Z,101004.22
2023-05-07T06:34:37.588Z,101009.16
2023-05-07T06:37:04.806Z,101007.53
2023-05-07T06:39:46.381Z,100998.84
2023-05-07T06:42:13.896Z,101004.59
2023-05-07T06:44:43.559Z,100996.06
2023-05-07T06:47:16.611Z,101000.97
2023-05-07T06:49:46.649Z,100999.72
2023-05-07T06:52:17.426Z,100999.22
2023-05-07T06:54:45.296Z,101003.72
2023-05-07T06:57:15.779Z,101000.03
2023-05-07T06:59:42.819Z,101001.41
2023-05-07T07:02:10.936Z,100993.59
2023-05-07T07:04:39.793Z,100991.09
2023-05-07T07:07:10.275Z,100997.03
2023-05-07T07:09:38.020Z,101006.84
2023-05-07T07:12:06.741Z,101000.97
2023-05-07T07:14:35.479Z,100999.97
2023-05-07T07:17:02.743Z,100998.09
2023-05-07T07:19:29.986Z,101007.41
2023-05-07T07:21:58.082Z,101014.13
2023-05-07T07:24:25.194Z,101008.09
2023-05-07T07:26:56.887Z,101009.22
2023-05-07T07:29:27.816Z,101008.44
2023-05-07T07:31:55.692Z,101003.59
2023-05-07T07:34:23.086Z,100998.97
2023-05-07T07:36:51.061Z,101011.53
2023-05-07T07:39:19.666Z,101000.19
2023-05-07T07:41:49.534Z,101003.75
2023-05-07T07:44:17.622Z,101009.00
2023-05-07T07:46:50.786Z,101002.47
2023-05-07T07:49:18.432Z,101005.50
2023-05-07T07:51:45.825Z,101020.28
2023-05-07T07:54:14.098Z,101014.25
2023-05-07T07:56:41.761Z,101023.25
2023-05-07T07:59:10.504Z,101013.13
2023-05-07T08:01:40.505Z,101012.91
2023-05-07T08:04:08.602Z,101009.16
2023-05-07T08:06:39.417Z,101016.53
2023-05-07T08:09:09.483Z,101019.59
2023-05-07T08:11:38.007Z,101013.84
2023-05-07T08:14:06.363Z,101018.88
2023-05-07T08:16:33.692Z,101013.50
2023-05-07T08:19:01.815Z,101013.72
2023-05-07T08:21:29.007Z,101022.66
2023-05-07T08:23:56.114Z,101008.38
2023-05-07T08:26:24.046Z,101005.97
2023-05-07T08:28:51.236Z,101002.66
2023-05-07T08:31:18.373Z,101004.47
2023-05-07T08:33:46.373Z,101015.22
2023-05-07T08:36:13.503Z,101015.50
2023-05-07T08:38:45.418Z,101004.31
2023-05-07T08:41:12.785Z,101003.56
2023-05-07T08:43:43.173Z,101011.31
2023-05-07T08:46:13.278Z,101008.19
2023-05-07T08:48:43.726Z,101005.88
2023-05-07T08:51:18.772Z,101013.31
2023-05-07T08:53:49.499Z,101001.38
2023-05-07T08:56:22.760Z,101003.22
2023-05-07T08:58:52.561Z,101007.13
2023-05-07T09:01:20.304Z,101008.91
2023-05-07T09:03:53.155Z,101011.88
2023-05-07T09:06:21.292Z,101007.63
2023-05-07T09:08:53.141Z,101004.22
2023-05-07T09:11:23.973Z,101001.34
2023-05-07T09:13:57.447Z,101001.56
2023-05-07T09:16:27.255Z,100989.00
2023-05-07T09:18:56.452Z,100999.03
2023-05-07T09:21:24.247Z,101004.03
2023-05-07T09:23:55.799Z,100992.31
2023-05-07T09:26:29.445Z,100987.72
2023-05-07T09:28:56.951Z,100993.16
2023-05-07T09:31:27.280Z,100988.47
2023-05-07T09:33:57.065Z,100974.53
2023-05-07T09:36:28.392Z,100979.03
2023-05-07T09:38:55.747Z,100966.31
2023-05-07T09:41:23.427Z,100975.94
2023-05-07T09:44:16.977Z,100976.31
2023-05-07T09:46:56.286Z,100970.34
2023-05-07T09:49:37.024Z,100969.97
2023-05-07T09:52:10.116Z,100964.44
2023-05-07T09:54:44.161Z,100968.84
2023-05-07T09:57:15.446Z,100975.75
2023-05-07T09:59:46.720Z,100983.31
2023-05-07T10:02:19.030Z,100975.59
2023-05-07T10:04:49.848Z,100978.22
2023-05-07T10:07:22.146Z,100975.47
2023-05-07T10:09:53.045Z,100972.81
2023-05-07T10:12:31.251Z,100959.69
2023-05-07T10:14:58.840Z,100969.25
2023-05-07T10:17:26.892Z,100979.88
2023-05-07T10:19:55.361Z,100976.69
2023-05-07T10:22:24.471Z,100979.06
2023-05-07T10:24:55.818Z,100973.75
2023-05-07T10:27:24.624Z,100972.38
2023-05-07T10:30:38.441Z,100980.28
2023-05-07T10:33:10.265Z,100967.53
2023-05-07T10:35:42.997Z,100960.38
2023-05-07T10:38:11.102Z,100959.72
2023-05-07T10:40:41.733Z,100962.16
2023-05-07T10:43:10.803Z,100961.97
2023-05-07T10:46:16.980Z,100954.03
2023-05-07T10:49:06.426Z,100966.97
2023-05-07T10:51:42.406Z,100959.63
2023-05-07T10:54:22.853Z,100962.63
2023-05-07T10:58:04.209Z,100975.84
2023-05-07T11:00:41.604Z,100970.22
2023-05-07T11:03:13.823Z,100984.56
2023-05-07T11:05:48.229Z,100981.84
2023-05-07T11:08:23.900Z,100972.38
2023-05-07T11:11:00.760Z,100974.03
2023-05-07T11:13:43.127Z,100983.41
2023-05-07T11:16:24.263Z,100976.97
2023-05-07T11:18:58.437Z,100970.44
2023-05-07T11:21:42.944Z,100973.13
2023-05-07T11:24:26.392Z,100976.91
2023-05-07T11:27:01.606Z,100982.91
2023-05-07T11:29:32.000Z,100981.47
2023-05-07T11:32:14.047Z,100985.59
2023-05-07T11:34:48.717Z,100978.66
2023-05-07T11:37:19.163Z,100984.22
2023-05-07T11:40:08.068Z,100987.91
2023-05-07T11:42:38.928Z,100991.38
2023-05-07T11:45:07.665Z,100989.72
2023-05-07T11:47:35.212Z,100990.63
2023-05-07T11:50:08.636Z,100992.69
2023-05-07T11:52:36.644Z,100988.84
2023-05-07T11:55:05.842Z,100983.81
2023-05-07T11:57:35.362Z,100998.84
2023-05-07T12:00:05.086Z,101000.38
2023-05-07T12:02:39.983Z,100993.13
2023-05-07T12:05:07.446Z,100988.88
2023-05-07T12:07:35.911Z,100983.47
2023-05-07T12:10:07.517Z,100980.09
2023-05-07T12:12:43.256Z,100978.28
2023-05-07T12:15:11.698Z,100982.09
2023-05-07T12:17:39.359Z,100994.63
2023-05-07T12:20:07.618Z,100980.22
2023-05-07T12:22:34.884Z,100975.13
2023-05-07T12:25:02.161Z,100985.31
2023-05-07T12:27:29.649Z,100981.38
2023-05-07T12:30:02.276Z,100982.03
2023-05-07T12:32:29.558Z,100984.31
2023-05-07T12:34:56.672Z,100989.53
2023-05-07T12:37:30.321Z,100973.84
2023-05-07T12:40:11.122Z,100975.94
2023-05-07T12:42:39.850Z,100974.66
2023-05-07T12:45:14.671Z,100975.19
2023-05-07T12:47:46.419Z,100987.59
2023-05-07T12:50:15.498Z,100975.63
2023-05-07T12:52:43.985Z,100974.78
2023-05-07T12:55:14.976Z,100981.22
2023-05-07T12:57:44.290Z,100974.03
2023-05-07T13:00:12.060Z,100974.53
2023-05-07T13:02:40.830Z,100977.53
2023-05-07T13:05:09.188Z,100966.88
2023-05-07T13:07:38.102Z,100964.34
2023-05-07T13:10:06.107Z,100961.47
2023-05-07T13:12:33.786Z,100967.75
2023-05-07T13:15:00.932Z,100964.00
2023-05-07T13:17:28.066Z,100970.22
2023-05-07T13:19:55.239Z,100970.38
2023-05-07T13:22:22.398Z,100964.38
2023-05-07T13:24:49.448Z,100960.28
2023-05-07T13:27:16.739Z,100972.47
2023-05-07T13:29:43.830Z,100970.41
2023-05-07T13:32:10.993Z,100980.06
2023-05-07T13:34:38.305Z,100973.03
2023-05-07T13:37:05.391Z,100969.97
2023-05-07T13:39:32.752Z,100971.16
2023-05-07T13:41:59.868Z,100967.91
2023-05-07T13:44:27.763Z,100968.28
2023-05-07T13:46:55.105Z,100970.72
2023-05-07T13:49:22.193Z,100969.97
2023-05-07T13:51:49.362Z,100976.03
2023-05-07T13:54:17.032Z,100972.47
2023-05-07T13:56:44.142Z,100965.84
2023-05-07T13:59:11.304Z,100978.69
2023-05-07T14:01:38.454Z,100979.09
2023-05-07T14:04:05.850Z,100980.78
2023-05-07T14:06:32.935Z,100979.09
2023-05-07T14:09:01.226Z,100989.44
2023-05-07T14:11:28.346Z,100986.53
2023-05-07T14:13:55.650Z,100988.41
2023-05-07T14:16:22.818Z,100989.25
2023-05-07T14:18:50.210Z,100985.16
2023-05-07T14:21:17.331Z,100992.19
2023-05-07T14:23:44.479Z,100987.06
2023-05-07T14:26:11.624Z,100987.06
2023-05-07T14:28:40.688Z,100989.63
2023-05-07T14:31:07.966Z,100990.16
2023-05-07T14:33:35.241Z,100998.94
2023-05-07T14:36:02.368Z,100990.34
2023-05-07T14:38:29.530Z,100984.75
2023-05-07T14:40:57.343Z,100991.16
2023-05-07T14:43:24.511Z,100988.84
2023-05-07T14:45:51.819Z,100990.56
2023-05-07T14:48:21.175Z,100986.94
2023-05-07T14:50:49.395Z,100987.84
2023-05-07T14:53:17.075Z,100983.00
2023-05-07T14:55:44.285Z,100989.09
2023-05-07T14:58:12.410Z,100981.63
2023-05-07T15:00:39.738Z,100991.66
2023-05-07T15:03:09.308Z,100984.84
2023-05-07T15:05:37.790Z,100981.72
2023-05-07T15:08:05.084Z,100988.63
2023-05-07T15:10:32.207Z,100992.25
2023-05-07T15:13:00.474Z,100984.38
2023-05-07T15:15:27.777Z,100984.19
2023-05-07T15:17:55.850Z,100979.59
2023-05-07T15:20:22.889Z,100978.31
2023-05-07T15:22:49.982Z,100982.28
2023-05-07T15:25:17.234Z,100982.47
2023-05-07T15:27:45.537Z,100988.59
2023-05-07T15:30:13.450Z,100982.94
2023-05-07T15:32:40.690Z,100985.44
2023-05-07T15:35:08.773Z,100990.00
2023-05-07T15:37:36.052Z,100986.72
2023-05-07T15:40:03.624Z,100991.63
2023-05-07T15:42:30.976Z,100990.00
2023-05-07T15:44:58.455Z,100984.38
2023-05-07T15:47:25.559Z,101002.78
2023-05-07T15:49:52.996Z,100994.34
2023-05-07T15:52:20.121Z,100998.97
2023-05-07T15:54:47.412Z,100994.13
2023-05-07T15:57:14.842Z,100996.06
2023-05-07T15:59:42.209Z,101004.22
2023-05-07T16:02:10.431Z,101003.50
2023-05-07T16:04:37.570Z,101011.56
2023-05-07T16:07:04.721Z,101001.78
2023-05-07T16:09:32.028Z,101007.56
2023-05-07T16:11:59.097Z,101002.63
2023-05-07T16:14:26.274Z,101008.84
2023-05-07T16:16:54.757Z,100998.97
2023-05-07T16:19:24.206Z,101001.53
2023-05-07T16:21:51.287Z,101002.72
2023-05-07T16:24:18.313Z,101008.06
2023-05-07T16:26:45.499Z,100999.31
2023-05-07T16:29:12.800Z,101013.56
2023-05-07T16:31:39.922Z,101001.00
2023-05-07T16:34:07.044Z,101008.25
2023-05-07T16:36:34.365Z,101013.63
2023-05-07T16:39:01.494Z,101017.59
2023-05-07T16:41:28.571Z,101019.28
2023-05-07T16:43:57.773Z,101019.91
2023-05-07T16:46:24.869Z,101024.44
2023-05-07T16:48:52.009Z,101028.88
2023-05-07T16:51:19.327Z,101017.47
2023-05-07T16:53:46.595Z,101017.63
2023-05-07T16:56:13.697Z,101009.13
2023-05-07T16:58:40.901Z,101016.06
2023-05-07T17:01:11.138Z,101016.19
2023-05-07T17:03:38.732Z,101016.22
2023-05-07T17:06:12.979Z,101028.63
2023-05-07T17:08:42.627Z,101019.81
2023-05-07T17:11:10.499Z,101030.44
2023-05-07T17:13:37.681Z,101028.66
2023-05-07T17:16:05.154Z,101032.13
2023-05-07T17:18:32.323Z,101034.75
2023-05-07T17:21:00.007Z,101038.34
2023-05-07T17:23:28.305Z,101039.28
2023-05-07T17:25:55.456Z,101041.72
2023-05-07T17:28:22.718Z,101044.22
2023-05-07T17:30:50.359Z,101049.28
2023-05-07T17:33:21.487Z,101050.38
2023-05-07T17:35:49.891Z,101054.44
2023-05-07T17:38:17.028Z,101051.81
2023-05-07T17:40:44.111Z,101050.50
2023-05-07T17:43:11.153Z,101056.94
2023-05-07T17:45:38.415Z,101054.72
2023-05-07T17:48:05.953Z,101061.25
2023-05-07T17:50:33.317Z,101061.41
2023-05-07T17:53:00.874Z,101064.91
2023-05-07T17:55:28.516Z,101074.72
2023-05-07T17:57:56.838Z,101078.25
2023-05-07T18:00:24.000Z,101075.59
2023-05-07T18:02:54.210Z,101072.78
2023-05-07T18:05:21.552Z,101080.53
2023-05-07T18:07:48.699Z,101083.03
2023-05-07T18:10:15.939Z,101083.03
2023-05-07T18:12:43.041Z,101082.84
2023-05-07T18:15:10.677Z,101090.47
2023-05-07T18:17:37.879Z,101090.16
2023-05-07T18:20:11.775Z,101085.72
2023-05-07T18:22:39.084Z,101090.88
2023-05-07T18:25:06.786Z,101085.59
2023-05-07T18:27:34.372Z,101084.63
2023-05-07T18:30:01.659Z,101091.16
2023-05-07T18:32:28.833Z,101092.34
2023-05-07T18:34:55.916Z,101083.28
2023-05-07T18:37:24.667Z,101094.50
2023-05-07T18:39:53.253Z,101088.59
2023-05-07T18:42:20.344Z,101082.50
2023-05-07T18:44:47.433Z,101084.09
2023-05-07T18:47:14.651Z,101090.09
2023-05-07T18:49:41.729Z,101096.53
2023-05-07T18:52:08.792Z,101094.25
2023-05-07T18:54:35.914Z,101092.09
2023-05-07T18:57:03.150Z,101103.44
2023-05-07T18:59:30.228Z,101100.16
2023-05-07T19:01:57.482Z,101107.50
2023-05-07T19:04:24.698Z,101106.75
2023-05-07T19:06:51.955Z,101105.28
2023-05-07T19:09:19.127Z,101111.31
2023-05-07T19:11:46.315Z,101100.72
2023-05-07T19:14:13.344Z,101108.13
2023-05-07T19:16:40.564Z,101112.50
2023-05-07T19:19:07.731Z,101111.28
2023-05-07T19:21:34.824Z,101106.75
2023-05-07T19:24:01.859Z,101104.78
2023-05-07T19:26:29.029Z,101108.16
2023-05-07T19:29:12.354Z,101105.44
2023-05-07T19:31:44.361Z,101106.53
2023-05-07T19:34:14.271Z,101107.97
2023-05-07T19:36:41.723Z,101103.19
2023-05-07T19:39:08.994Z,101104.72
2023-05-07T19:41:36.050Z,101103.56
2023-05-07T19:44:03.141Z,101103.72
2023-05-07T19:46:30.389Z,101104.06
2023-05-07T19:48:57.586Z,101103.78
2023-05-07T19:51:24.678Z,101108.88
2023-05-07T19:53:51.762Z,101121.13
2023-05-07T19:56:18.821Z,101123.16
2023-05-07T19:58:45.965Z,101123.75
2023-05-07T20:01:13.086Z,101125.50
2023-05-07T20:03:40.338Z,101131.66
2023-05-07T20:06:07.449Z,101123.72
2023-05-07T20:08:34.625Z,101126.16
2023-05-07T20:11:01.692Z,101124.41
2023-05-07T20:13:29.017Z,101128.06
2023-05-07T20:16:00.279Z,101131.81
2023-05-07T20:18:29.159Z,101132.28
2023-05-07T20:20:56.616Z,101141.59
2023-05-07T20:23:23.718Z,101134.44
2023-05-07T20:25:50.911Z,101137.03
2023-05-07T20:28:18.674Z,101133.63
2023-05-07T20:30:45.846Z,101134.31
2023-05-07T20:33:13.595Z,101128.25
2023-05-07T20:35:41.524Z,101130.72
2023-05-07T20:38:08.912Z,101136.34
2023-05-07T20:40:39.086Z,101137.22
2023-05-07T20:43:06.776Z,101137.28
2023-05-07T20:45:33.969Z,101138.94
2023-05-07T20:48:01.317Z,101139.06
2023-05-07T20:50:28.568Z,101141.78
2023-05-07T20:52:55.848Z,101133.13
2023-05-07T20:55:23.142Z,101138.25
2023-05-07T20:57:50.308Z,101138.59
2023-05-07T21:00:17.905Z,101148.19
2023-05-07T21:02:45.812Z,101147.22
2023-05-07T21:05:12.973Z,101146.44
2023-05-07T21:07:40.031Z,101146.34
2023-05-07T21:10:07.653Z,101148.97
2023-05-07T21:12:34.932Z,101142.88
2023-05-07T21:15:02.108Z,101140.28
2023-05-07T21:17:31.850Z,101143.75
2023-05-07T21:19:59.198Z,101139.25
2023-05-07T21:22:26.310Z,101148.22
2023-05-07T21:24:53.426Z,101150.00
2023-05-07T21:27:20.621Z,101154.44
2023-05-07T21:29:47.677Z,101140.31
2023-05-07T21:32:15.069Z,101142.00
2023-05-07T21:34:42.225Z,101146.56
2023-05-07T21:37:09.304Z,101155.47
2023-05-07T21:39:36.345Z,101163.31
2023-05-07T21:42:03.463Z,101157.16
2023-05-07T21:44:31.665Z,101154.38
2023-05-07T21:46:58.695Z,101154.97
2023-05-07T21:49:25.801Z,101140.91
2023-05-07T21:51:52.950Z,101146.06
2023-05-07T21:54:20.156Z,101142.78
2023-05-07T21:56:48.177Z,101152.59
2023-05-07T21:59:17.025Z,101145.66
2023-05-07T22:01:44.105Z,101142.09
2023-05-07T22:04:11.265Z,101143.06
2023-05-07T22:06:38.380Z,101140.31
2023-05-07T22:09:05.490Z,101133.31
2023-05-07T22:11:32.519Z,101134.22
2023-05-07T22:14:00.805Z,101128.72
2023-05-07T22:16:27.965Z,101126.78
2023-05-07T22:18:55.225Z,101119.81
2023-05-07T22:21:22.434Z,101126.78
2023-05-07T22:23:49.494Z,101123.28
2023-05-07T22:26:16.600Z,101122.59
2023-05-07T22:28:44.022Z,101119.84
2023-05-07T22:31:11.477Z,101126.81
2023-05-07T22:33:38.676Z,101133.13
2023-05-07T22:36:07.769Z,101122.66
2023-05-07T22:38:34.969Z,101120.72
2023-05-07T22:41:02.005Z,101119.03
2023-05-07T22:43:29.141Z,101107.56
2023-05-07T22:46:04.016Z,101108.44
2023-05-07T22:48:32.844Z,101109.53
2023-05-07T22:51:00.263Z,101121.91
2023-05-07T22:53:27.393Z,101113.88
2023-05-07T22:55:54.453Z,101114.13
2023-05-07T22:58:21.712Z,101107.13
2023-05-07T23:00:48.949Z,101102.75
2023-05-07T23:03:16.259Z,101114.13
2023-05-07T23:05:43.916Z,101095.72
2023-05-07T23:08:11.562Z,101100.22
2023-05-07T23:10:38.781Z,101090.56
2023-05-07T23:13:06.257Z,101085.38
2023-05-07T23:15:33.765Z,101084.50
2023-05-07T23:18:00.937Z,101087.13
2023-05-07T23:20:28.075Z,101086.25
2023-05-07T23:22:55.170Z,101083.53
2023-05-07T23:25:22.382Z,101083.44
2023-05-07T23:27:50.100Z,101086.06
2023-05-07T23:30:17.391Z,101086.13
2023-05-07T23:32:44.553Z,101084.34
2023-05-07T23:35:11.615Z,101080.97
2023-05-07T23:37:39.353Z,101075.72
2023-05-07T23:40:07.142Z,101073.97
2023-05-07T23:42:34.512Z,101073.09
2023-05-07T23:45:02.040Z,101074.88
2023-05-07T23:47:29.165Z,101069.56
2023-05-07T23:49:56.321Z,101077.44
2023-05-07T23:52:23.505Z,101081.81
2023-05-07T23:54:50.815Z,101072.13
2023-05-07T23:57:17.946Z,101073.81
2023-05-07T23:59:45.007Z,101066.81
